createdAt,value
2018-05-23T00:00:25.061Z,9.23
2018-05-23T00:02:59.682Z,9.70
2018-05-23T00:05:34.698Z,9.77
2018-05-23T00:08:08.992Z,8.80
2018-05-23T00:10:44.567Z,9.45
2018-05-23T00:13:19.349Z,10.07
2018-05-23T00:15:53.811Z,10.13
2018-05-23T00:18:28.860Z,10.00
2018-05-23T00:21:04.181Z,10.30
2018-05-23T00:23:39.272Z,9.75
2018-05-23T00:26:14.153Z,9.18
2018-05-23T00:28:48.764Z,9.25
2018-05-23T00:31:23.786Z,9.10
2018-05-23T00:33:58.581Z,9.87
2018-05-23T00:36:34.718Z,9.18
2018-05-23T00:39:10.354Z,8.70
2018-05-23T00:41:45.360Z,9.15
2018-05-23T00:44:20.357Z,8.03
2018-05-23T00:46:55.372Z,9.40
2018-05-23T00:49:30.500Z,8.87
2018-05-23T00:52:05.453Z,8.50
2018-05-23T00:54:51.855Z,8.40
2018-05-23T00:57:26.467Z,7.60
2018-05-23T01:00:01.395Z,8.17
2018-05-23T01:02:36.410Z,7.77
2018-05-23T01:05:11.487Z,7.57
2018-05-23T01:07:46.585Z,7.60
2018-05-23T01:10:21.549Z,7.70
2018-05-23T01:12:56.600Z,7.20
2018-05-23T01:15:31.388Z,7.10
2018-05-23T01:18:06.428Z,7.57
2018-05-23T01:20:41.421Z,7.07
2018-05-23T01:23:16.297Z,7.25
2018-05-23T01:25:50.844Z,6.37
2018-05-23T01:28:26.089Z,6.90
2018-05-23T01:31:00.901Z,6.90
2018-05-23T01:33:35.898Z,5.70
2018-05-23T01:36:10.977Z,8.20
2018-05-23T01:38:45.927Z,6.30
2018-05-23T01:41:20.822Z,6.73
2018-05-23T01:43:55.876Z,6.67
2018-05-23T01:46:30.919Z,6.30
2018-05-23T01:49:16.924Z,6.07
2018-05-23T01:51:51.865Z,6.13
2018-05-23T01:54:26.548Z,6.57
2018-05-23T01:57:01.449Z,6.50
2018-05-23T01:59:36.757Z,6.10
2018-05-23T02:02:11.891Z,6.00
2018-05-23T02:04:46.609Z,6.80
2018-05-23T02:07:21.598Z,6.80
2018-05-23T02:09:56.692Z,6.40
2018-05-23T02:12:31.383Z,7.07
2018-05-23T02:15:06.280Z,6.07
2018-05-23T02:17:41.121Z,6.40
2018-05-23T02:20:15.695Z,6.47
2018-05-23T02:22:50.825Z,6.70
2018-05-23T02:25:25.586Z,6.00
2018-05-23T02:28:00.467Z,6.62
2018-05-23T02:30:35.000Z,6.47
2018-05-23T02:33:09.733Z,6.20
2018-05-23T02:35:44.730Z,6.07
2018-05-23T02:38:19.709Z,6.40
2018-05-23T02:40:54.241Z,6.60
2018-05-23T02:43:29.181Z,6.30
2018-05-23T02:46:03.814Z,5.90
2018-05-23T02:48:39.084Z,6.68
2018-05-23T02:51:14.629Z,6.15
2018-05-23T02:53:49.223Z,6.00
2018-05-23T02:56:24.080Z,5.40
2018-05-23T02:58:58.982Z,6.40
2018-05-23T03:01:34.959Z,5.45
2018-05-23T03:04:09.656Z,6.23
2018-05-23T03:06:44.593Z,6.28
2018-05-23T03:09:19.297Z,6.10
2018-05-23T03:11:54.784Z,5.83
2018-05-23T03:14:29.789Z,6.03
2018-05-23T03:17:04.681Z,6.00
2018-05-23T03:19:40.074Z,6.00
2018-05-23T03:22:14.820Z,6.20
2018-05-23T03:24:49.573Z,5.78
2018-05-23T03:27:24.297Z,6.50
2018-05-23T03:29:59.229Z,6.20
2018-05-23T03:32:35.160Z,5.90
2018-05-23T03:35:10.185Z,6.37
2018-05-23T03:37:44.761Z,5.83
2018-05-23T03:40:19.796Z,6.23
2018-05-23T03:42:54.722Z,6.20
2018-05-23T03:45:29.446Z,6.43
2018-05-23T03:48:04.817Z,6.37
2018-05-23T03:50:39.821Z,6.05
2018-05-23T03:53:14.854Z,6.10
2018-05-23T03:55:49.390Z,6.40
2018-05-23T03:58:24.193Z,6.00
2018-05-23T04:01:10.633Z,5.37
2018-05-23T04:03:56.535Z,5.55
2018-05-23T04:06:37.205Z,5.50
2018-05-23T04:09:11.969Z,6.03
2018-05-23T04:11:46.909Z,5.33
2018-05-23T04:14:22.174Z,6.70
2018-05-23T04:16:57.093Z,9.17
2018-05-23T04:19:31.934Z,6.07
2018-05-23T04:22:06.908Z,6.43
2018-05-23T04:24:42.294Z,6.20
2018-05-23T04:27:17.150Z,6.17
2018-05-23T04:29:52.265Z,5.70
2018-05-23T04:32:26.937Z,5.90
2018-05-23T04:35:01.947Z,6.70
2018-05-23T04:37:36.903Z,5.60
2018-05-23T04:40:11.985Z,5.70
2018-05-23T04:42:47.710Z,6.03
2018-05-23T04:45:22.793Z,5.67
2018-05-23T04:47:58.087Z,5.40
2018-05-23T04:50:33.373Z,4.87
2018-05-23T04:53:08.162Z,6.10
2018-05-23T04:55:43.226Z,4.90
2018-05-23T04:58:18.044Z,6.10
2018-05-23T05:00:53.269Z,5.15
2018-05-23T05:03:28.673Z,6.27
2018-05-23T05:06:03.397Z,5.10
2018-05-23T05:08:38.302Z,5.47
2018-05-23T05:11:13.166Z,5.80
2018-05-23T05:13:48.060Z,6.37
2018-05-23T05:16:22.996Z,5.50
2018-05-23T05:18:57.421Z,5.20
2018-05-23T05:21:32.569Z,5.70
2018-05-23T05:24:06.948Z,5.40
2018-05-23T05:26:42.393Z,5.83
2018-05-23T05:29:17.141Z,5.40
2018-05-23T05:31:52.189Z,5.53
2018-05-23T05:34:27.569Z,5.07
2018-05-23T05:37:02.343Z,5.20
2018-05-23T05:39:37.305Z,5.50
2018-05-23T05:42:12.570Z,5.40
2018-05-23T05:44:47.422Z,5.67
2018-05-23T05:47:22.421Z,5.70
2018-05-23T05:49:58.053Z,5.10
2018-05-23T05:52:33.270Z,5.10
2018-05-23T05:55:08.277Z,5.30
2018-05-23T05:57:43.441Z,5.43
2018-05-23T06:00:17.910Z,5.33
2018-05-23T06:02:53.334Z,4.82
2018-05-23T06:05:29.160Z,5.77
2018-05-23T06:08:04.252Z,5.17
2018-05-23T06:10:39.372Z,5.00
2018-05-23T06:13:14.390Z,4.73
2018-05-23T06:15:49.429Z,5.57
2018-05-23T06:18:24.301Z,4.90
2018-05-23T06:20:59.286Z,5.10
2018-05-23T06:23:35.537Z,5.37
2018-05-23T06:26:10.193Z,5.73
2018-05-23T06:28:45.473Z,5.12
2018-05-23T06:31:20.708Z,6.07
2018-05-23T06:33:55.354Z,5.17
2018-05-23T06:36:30.676Z,6.10
2018-05-23T06:39:06.070Z,4.80
2018-05-23T06:41:40.758Z,5.53
2018-05-23T06:44:15.579Z,6.00
2018-05-23T06:46:50.989Z,5.67
2018-05-23T06:49:26.373Z,5.40
2018-05-23T06:52:01.372Z,5.40
2018-05-23T06:54:36.397Z,5.10
2018-05-23T06:57:11.373Z,5.77
2018-05-23T06:59:45.812Z,5.80
2018-05-23T07:02:20.707Z,5.90
2018-05-23T07:04:55.554Z,5.70
2018-05-23T07:07:30.413Z,5.80
2018-05-23T07:10:05.022Z,5.20
2018-05-23T07:12:39.734Z,5.53
2018-05-23T07:15:14.587Z,5.97
2018-05-23T07:17:49.888Z,5.90
2018-05-23T07:20:24.265Z,5.67
2018-05-23T07:22:59.282Z,6.10
2018-05-23T07:25:35.641Z,5.75
2018-05-23T07:28:11.318Z,6.20
2018-05-23T07:30:45.849Z,6.20
2018-05-23T07:33:20.735Z,6.10
2018-05-23T07:35:55.789Z,6.07
2018-05-23T07:38:30.793Z,5.13
2018-05-23T07:41:05.766Z,5.53
2018-05-23T07:43:41.051Z,6.23
2018-05-23T07:46:15.830Z,6.23
2018-05-23T07:48:50.692Z,5.87
2018-05-23T07:51:25.548Z,6.90
2018-05-23T07:54:00.519Z,6.07
2018-05-23T07:56:35.822Z,5.43
2018-05-23T07:59:10.706Z,6.07
2018-05-23T08:01:45.313Z,5.90
2018-05-23T08:04:20.574Z,6.30
2018-05-23T08:06:55.318Z,5.97
2018-05-23T08:09:30.427Z,5.72
2018-05-23T08:12:04.633Z,5.73
2018-05-23T08:14:39.722Z,6.82
2018-05-23T08:17:14.578Z,5.87
2018-05-23T08:19:49.721Z,5.90
2018-05-23T08:22:24.645Z,6.33
2018-05-23T08:24:59.534Z,6.60
2018-05-23T08:27:35.889Z,6.07
2018-05-23T08:30:10.918Z,7.23
2018-05-23T08:32:45.884Z,6.20
2018-05-23T08:35:20.781Z,5.63
2018-05-23T08:37:55.701Z,6.53
2018-05-23T08:40:30.739Z,6.30
2018-05-23T08:43:05.797Z,6.70
2018-05-23T08:45:40.622Z,6.28
2018-05-23T08:48:15.478Z,6.87
2018-05-23T08:50:50.505Z,6.72
2018-05-23T08:53:25.502Z,6.13
2018-05-23T08:56:00.489Z,6.33
2018-05-23T08:58:35.877Z,5.73
2018-05-23T09:01:10.722Z,6.43
2018-05-23T09:03:45.092Z,6.17
2018-05-23T09:06:20.097Z,5.37
2018-05-23T09:08:54.909Z,5.53
2018-05-23T09:11:29.966Z,5.30
2018-05-23T09:14:05.100Z,5.80
2018-05-23T09:16:39.940Z,5.47
2018-05-23T09:19:14.905Z,5.33
2018-05-23T09:21:49.845Z,5.50
2018-05-23T09:24:24.780Z,5.57
2018-05-23T09:26:59.704Z,5.32
2018-05-23T09:29:35.665Z,5.40
2018-05-23T09:32:10.672Z,6.00
2018-05-23T09:34:45.665Z,5.70
2018-05-23T09:37:20.661Z,4.93
2018-05-23T09:39:55.529Z,5.10
2018-05-23T09:42:30.109Z,4.87
2018-05-23T09:45:04.342Z,4.90
2018-05-23T09:47:39.712Z,4.70
2018-05-23T09:50:14.708Z,5.10
2018-05-23T09:52:49.845Z,4.97
2018-05-23T09:55:24.680Z,4.70
2018-05-23T09:57:59.705Z,4.37
2018-05-23T10:00:34.373Z,4.13
2018-05-23T10:03:09.341Z,4.43
2018-05-23T10:05:44.185Z,4.27
2018-05-23T10:08:19.148Z,4.47
2018-05-23T10:10:54.625Z,4.20
2018-05-23T10:13:29.607Z,4.20
2018-05-23T10:16:04.639Z,4.00
2018-05-23T10:18:40.009Z,4.00
2018-05-23T10:21:14.463Z,4.20
2018-05-23T10:23:49.825Z,3.75
2018-05-23T10:26:24.910Z,4.07
2018-05-23T10:28:59.713Z,3.10
2018-05-23T10:31:34.326Z,3.90
2018-05-23T10:34:09.266Z,3.93
2018-05-23T10:36:44.236Z,3.37
2018-05-23T10:39:19.113Z,4.00
2018-05-23T10:41:53.704Z,3.67
2018-05-23T10:44:28.294Z,3.53
2018-05-23T10:47:02.917Z,3.40
2018-05-23T10:49:38.037Z,3.47
2018-05-23T10:52:12.902Z,4.00
2018-05-23T10:54:47.995Z,3.65
2018-05-23T10:57:22.441Z,4.10
2018-05-23T10:59:57.154Z,3.67
2018-05-23T11:02:32.177Z,4.13
2018-05-23T11:05:06.602Z,3.80
2018-05-23T11:07:42.074Z,3.50
2018-05-23T11:10:16.917Z,3.80
2018-05-23T11:12:52.141Z,3.80
2018-05-23T11:15:26.661Z,3.90
2018-05-23T11:18:01.506Z,3.50
2018-05-23T11:20:36.429Z,3.60
2018-05-23T11:23:11.144Z,4.30
2018-05-23T11:25:46.009Z,3.83
2018-05-23T11:28:21.014Z,3.60
2018-05-23T11:30:55.966Z,3.93
2018-05-23T11:33:31.113Z,3.60
2018-05-23T11:36:05.461Z,3.62
2018-05-23T11:38:40.450Z,3.80
2018-05-23T11:41:15.482Z,3.50
2018-05-23T11:43:50.026Z,3.53
2018-05-23T11:46:25.144Z,3.40
2018-05-23T11:48:59.999Z,3.50
2018-05-23T11:51:36.307Z,4.10
2018-05-23T11:54:11.594Z,3.50
2018-05-23T11:56:46.439Z,3.63
2018-05-23T11:59:21.164Z,3.93
2018-05-23T12:01:55.816Z,3.67
2018-05-23T12:04:31.125Z,3.87
2018-05-23T12:07:06.130Z,3.27
2018-05-23T12:09:41.149Z,3.60
2018-05-23T12:12:15.657Z,3.40
2018-05-23T12:14:50.549Z,4.07
2018-05-23T12:17:25.575Z,3.33
2018-05-23T12:20:00.443Z,3.53
2018-05-23T12:22:36.508Z,3.33
2018-05-23T12:25:11.438Z,3.27
2018-05-23T12:27:46.354Z,4.03
2018-05-23T12:30:21.460Z,3.50
2018-05-23T12:32:56.417Z,3.87
2018-05-23T12:35:31.239Z,3.93
2018-05-23T12:38:06.205Z,3.83
2018-05-23T12:40:41.298Z,3.70
2018-05-23T12:43:16.118Z,3.97
2018-05-23T12:45:51.474Z,4.25
2018-05-23T12:48:26.313Z,3.73
2018-05-23T12:51:01.797Z,3.33
2018-05-23T12:53:36.670Z,3.70
2018-05-23T12:56:11.586Z,3.60
2018-05-23T12:58:46.654Z,3.63
2018-05-23T13:01:21.605Z,3.30
2018-05-23T13:03:56.538Z,4.10
2018-05-23T13:06:31.380Z,4.30
2018-05-23T13:09:06.522Z,3.77
2018-05-23T13:11:41.327Z,4.28
2018-05-23T13:14:16.237Z,4.10
2018-05-23T13:16:51.310Z,4.55
2018-05-23T13:19:26.278Z,3.73
2018-05-23T13:22:01.266Z,4.30
2018-05-23T13:24:36.802Z,3.97
2018-05-23T13:27:12.648Z,4.20
2018-05-23T13:29:47.717Z,3.40
2018-05-23T13:32:22.613Z,4.00
2018-05-23T13:34:57.592Z,3.90
2018-05-23T13:37:32.406Z,3.60
2018-05-23T13:40:07.282Z,3.73
2018-05-23T13:42:42.581Z,4.22
2018-05-23T13:45:17.763Z,3.60
2018-05-23T13:47:52.876Z,3.60
2018-05-23T13:50:28.313Z,4.07
2018-05-23T13:53:02.388Z,3.93
2018-05-23T13:55:37.625Z,3.90
2018-05-23T13:58:12.337Z,3.40
2018-05-23T14:00:47.409Z,3.90
2018-05-23T14:03:21.894Z,3.30
2018-05-23T14:05:56.925Z,3.60
2018-05-23T14:08:31.592Z,3.70
2018-05-23T14:11:06.508Z,3.73
2018-05-23T14:13:41.618Z,4.17
2018-05-23T14:16:16.366Z,3.50
2018-05-23T14:18:51.074Z,3.65
2018-05-23T14:21:25.868Z,3.50
2018-05-23T14:24:00.724Z,3.70
2018-05-23T14:26:36.858Z,3.72
2018-05-23T14:29:11.485Z,3.80
2018-05-23T14:31:46.441Z,4.33
2018-05-23T14:34:21.524Z,3.40
2018-05-23T14:36:56.554Z,3.90
2018-05-23T14:39:31.462Z,3.33
2018-05-23T14:42:05.962Z,4.20
2018-05-23T14:44:40.852Z,3.67
2018-05-23T14:47:15.613Z,3.70
2018-05-23T14:49:50.629Z,3.93
2018-05-23T14:52:25.173Z,3.70
2018-05-23T14:55:00.100Z,4.20
2018-05-23T14:57:34.777Z,3.50
2018-05-23T15:00:09.175Z,4.10
2018-05-23T15:02:44.770Z,3.60
2018-05-23T15:05:19.541Z,3.80
2018-05-23T15:07:54.729Z,4.13
2018-05-23T15:10:29.763Z,3.60
2018-05-23T15:13:04.606Z,3.83
2018-05-23T15:15:39.891Z,4.20
2018-05-23T15:18:14.816Z,4.00
2018-05-23T15:20:49.795Z,3.23
2018-05-23T15:23:25.558Z,4.03
2018-05-23T15:26:00.137Z,3.67
2018-05-23T15:28:34.961Z,4.03
2018-05-23T15:31:10.149Z,3.70
2018-05-23T15:33:44.615Z,4.00
2018-05-23T15:36:19.658Z,4.13
2018-05-23T15:38:55.133Z,4.37
2018-05-23T15:41:30.039Z,3.47
2018-05-23T15:44:05.178Z,4.13
2018-05-23T15:46:40.403Z,4.60
2018-05-23T15:49:15.087Z,3.60
2018-05-23T15:51:50.169Z,4.30
2018-05-23T15:54:25.145Z,4.10
2018-05-23T15:57:00.183Z,4.00
2018-05-23T15:59:35.065Z,4.00
2018-05-23T16:02:09.924Z,3.87
2018-05-23T16:04:44.903Z,3.75
2018-05-23T16:07:19.789Z,4.10
2018-05-23T16:09:54.973Z,3.73
2018-05-23T16:12:29.761Z,3.57
2018-05-23T16:15:04.077Z,4.00
2018-05-23T16:17:38.990Z,3.50
2018-05-23T16:20:13.885Z,3.93
2018-05-23T16:22:48.770Z,3.00
2018-05-23T16:25:23.476Z,3.37
2018-05-23T16:27:58.798Z,3.40
2018-05-23T16:30:33.653Z,3.37
2018-05-23T16:33:08.414Z,4.77
2018-05-23T16:35:43.281Z,3.33
2018-05-23T16:38:18.594Z,3.50
2018-05-23T16:40:53.521Z,3.60
2018-05-23T16:43:28.041Z,3.23
2018-05-23T16:46:02.916Z,3.13
2018-05-23T16:48:37.961Z,2.97
2018-05-23T16:51:12.822Z,2.70
2018-05-23T16:53:47.970Z,3.37
2018-05-23T16:56:22.801Z,3.03
2018-05-23T16:58:57.617Z,2.90
2018-05-23T17:01:32.857Z,2.73
2018-05-23T17:04:07.388Z,3.13
2018-05-23T17:06:42.102Z,2.53
2018-05-23T17:09:17.121Z,2.83
2018-05-23T17:11:52.080Z,2.85
2018-05-23T17:14:26.930Z,2.77
2018-05-23T17:17:01.801Z,2.93
2018-05-23T17:19:36.886Z,2.37
2018-05-23T17:22:11.426Z,2.50
2018-05-23T17:24:46.354Z,2.50
2018-05-23T17:27:20.960Z,2.40
2018-05-23T17:29:56.013Z,2.40
2018-05-23T17:32:31.353Z,2.77
2018-05-23T17:35:06.016Z,2.47
2018-05-23T17:37:41.069Z,2.37
2018-05-23T17:40:15.545Z,2.80
2018-05-23T17:42:50.264Z,2.50
2018-05-23T17:45:24.806Z,2.70
2018-05-23T17:47:59.859Z,2.20
2018-05-23T17:50:35.373Z,2.67
2018-05-23T17:53:10.394Z,2.50
2018-05-23T17:55:45.056Z,3.05
2018-05-23T17:58:20.134Z,2.27
2018-05-23T18:00:55.128Z,2.77
2018-05-23T18:03:30.253Z,2.17
2018-05-23T18:06:04.848Z,2.53
2018-05-23T18:08:40.231Z,2.20
2018-05-23T18:11:15.754Z,2.15
2018-05-23T18:13:51.646Z,2.57
2018-05-23T18:16:26.166Z,2.33
2018-05-23T18:19:00.989Z,2.70
2018-05-23T18:21:37.328Z,2.17
2018-05-23T18:24:12.576Z,2.40
2018-05-23T18:26:47.185Z,2.30
2018-05-23T18:29:22.138Z,2.23
2018-05-23T18:31:57.870Z,2.47
2018-05-23T18:34:32.712Z,2.27
2018-05-23T18:37:07.038Z,2.17
2018-05-23T18:39:42.250Z,2.20
2018-05-23T18:42:17.200Z,2.10
2018-05-23T18:44:52.488Z,2.17
2018-05-23T18:47:27.481Z,2.00
2018-05-23T18:50:02.446Z,1.60
2018-05-23T18:52:37.696Z,2.07
2018-05-23T18:55:12.599Z,1.97
2018-05-23T18:57:47.297Z,1.83
2018-05-23T19:00:22.254Z,1.90
2018-05-23T19:02:57.101Z,1.50
2018-05-23T19:05:32.029Z,1.30
2018-05-23T19:08:07.032Z,1.80
2018-05-23T19:10:41.993Z,1.60
2018-05-23T19:13:16.604Z,1.70
2018-05-23T19:15:51.620Z,1.53
2018-05-23T19:18:26.230Z,1.80
2018-05-23T19:21:01.433Z,2.10
2018-05-23T19:23:37.412Z,1.60
2018-05-23T19:26:12.613Z,2.00
2018-05-23T19:28:47.492Z,2.60
2018-05-23T19:31:22.269Z,1.70
2018-05-23T19:33:56.897Z,1.80
2018-05-23T19:36:32.214Z,1.90
2018-05-23T19:39:07.985Z,1.83
2018-05-23T19:41:43.291Z,1.75
2018-05-23T19:44:18.659Z,1.73
2018-05-23T19:46:53.513Z,1.80
2018-05-23T19:49:28.257Z,1.87
2018-05-23T19:52:03.299Z,2.20
2018-05-23T19:54:38.520Z,2.00
2018-05-23T19:57:13.214Z,2.17
2018-05-23T19:59:48.381Z,2.10
2018-05-23T20:02:22.663Z,2.00
2018-05-23T20:04:58.237Z,1.90
2018-05-23T20:07:33.494Z,2.10
2018-05-23T20:10:08.437Z,2.10
2018-05-23T20:12:43.462Z,2.50
2018-05-23T20:15:18.396Z,2.03
2018-05-23T20:17:53.606Z,2.03
2018-05-23T20:20:28.482Z,2.40
2018-05-23T20:23:03.271Z,2.17
2018-05-23T20:25:38.381Z,2.60
2018-05-23T20:28:13.310Z,2.50
2018-05-23T20:30:48.253Z,2.40
2018-05-23T20:33:23.435Z,2.10
2018-05-23T20:35:58.476Z,2.10
2018-05-23T20:38:33.693Z,1.90
2018-05-23T20:41:08.741Z,2.60
2018-05-23T20:43:43.470Z,2.20
2018-05-23T20:46:18.181Z,2.40
2018-05-23T20:48:53.637Z,2.70
2018-05-23T20:51:28.590Z,2.50
2018-05-23T20:54:03.277Z,2.50
2018-05-23T20:56:37.742Z,2.00
2018-05-23T20:59:12.878Z,2.50
2018-05-23T21:01:48.514Z,2.47
2018-05-23T21:04:23.393Z,2.60
2018-05-23T21:06:58.688Z,2.87
2018-05-23T21:09:33.541Z,2.17
2018-05-23T21:12:08.377Z,2.00
2018-05-23T21:14:43.457Z,2.30
2018-05-23T21:17:18.357Z,2.50
2018-05-23T21:19:53.991Z,2.30
2018-05-23T21:22:28.732Z,2.07
2018-05-23T21:25:03.917Z,2.30
2018-05-23T21:27:38.786Z,2.30
2018-05-23T21:30:14.310Z,2.35
2018-05-23T21:32:49.421Z,2.27
2018-05-23T21:35:24.393Z,3.40
2018-05-23T21:37:59.300Z,2.40
2018-05-23T21:40:34.582Z,2.23
2018-05-23T21:43:09.541Z,2.10
2018-05-23T21:45:44.661Z,2.60
2018-05-23T21:48:19.437Z,2.30
2018-05-23T21:50:54.105Z,2.50
2018-05-23T21:53:29.422Z,2.63
2018-05-23T21:56:04.199Z,2.63
2018-05-23T21:58:39.623Z,2.83
2018-05-23T22:14:17.208Z,2.80
2018-05-23T22:16:53.090Z,2.73
2018-05-23T22:19:28.010Z,2.73
2018-05-23T22:22:02.972Z,2.50
2018-05-23T22:24:37.982Z,2.70
2018-05-23T22:27:12.736Z,2.50
2018-05-23T22:29:47.626Z,2.80
2018-05-23T22:32:22.065Z,3.10
2018-05-23T22:34:56.962Z,3.00
2018-05-23T22:37:31.641Z,2.83
2018-05-23T22:40:07.022Z,2.70
2018-05-23T22:42:42.086Z,3.03
2018-05-23T22:45:17.531Z,2.83
2018-05-23T22:47:52.894Z,4.27
2018-05-23T22:50:27.638Z,2.83
2018-05-23T22:53:02.737Z,3.00
2018-05-23T22:55:38.180Z,2.90
2018-05-23T22:58:12.705Z,2.93
2018-05-23T23:00:47.690Z,2.70
2018-05-23T23:03:22.701Z,3.07
2018-05-23T23:05:57.900Z,3.40
2018-05-23T23:08:33.502Z,3.57
2018-05-23T23:11:08.253Z,3.03
2018-05-23T23:13:43.841Z,3.33
2018-05-23T23:16:18.843Z,3.07
2018-05-23T23:18:54.117Z,2.70
2018-05-23T23:21:28.762Z,3.20
2018-05-23T23:24:03.696Z,2.90
2018-05-23T23:26:38.593Z,3.20
2018-05-23T23:29:13.729Z,3.10
2018-05-23T23:31:48.208Z,3.80
2018-05-23T23:34:23.349Z,3.67
2018-05-23T23:36:58.244Z,3.57
2018-05-23T23:39:33.564Z,2.80
2018-05-23T23:42:08.749Z,3.53
2018-05-23T23:44:44.010Z,3.10
2018-05-23T23:47:18.741Z,3.60
2018-05-23T23:49:53.812Z,3.20
2018-05-23T23:52:28.794Z,3.40
2018-05-23T23:55:03.793Z,3.42
2018-05-23T23:57:38.385Z,3.53
